createdAt,value
2024-04-25T00:02:26.687Z,4.26
2024-04-25T00:04:54.166Z,3.96
2024-04-25T00:07:22.518Z,4.12
2024-04-25T00:09:50.036Z,4.01
2024-04-25T00:12:17.476Z,4.28
2024-04-25T00:14:44.986Z,4.09
2024-04-25T00:17:12.491Z,4.07
2024-04-25T00:19:39.989Z,3.91
2024-04-25T00:22:07.310Z,4.10
2024-04-25T00:24:34.641Z,4.27
2024-04-25T00:27:01.988Z,3.81
2024-04-25T00:29:29.502Z,4.04
2024-04-25T00:31:57.017Z,4.09
2024-04-25T00:34:24.438Z,3.96
2024-04-25T00:36:51.842Z,4.16
2024-04-25T00:39:19.193Z,4.10
2024-04-25T00:41:46.541Z,4.11
2024-04-25T00:44:14.049Z,3.86
2024-04-25T00:46:43.896Z,4.00
2024-04-25T00:49:13.564Z,4.09
2024-04-25T00:51:41.464Z,3.94
2024-04-25T00:54:09.217Z,3.89
2024-04-25T00:56:40.334Z,4.02
2024-04-25T00:59:08.603Z,4.15
2024-04-25T01:01:39.273Z,3.88
2024-04-25T01:04:06.895Z,3.86
2024-04-25T01:06:36.399Z,3.78
2024-04-25T01:09:03.879Z,3.99
2024-04-25T01:11:34.366Z,4.22
2024-04-25T01:14:03.180Z,4.30
2024-04-25T01:16:30.744Z,4.51
2024-04-25T01:18:58.215Z,4.47
2024-04-25T01:21:25.674Z,4.32
2024-04-25T01:23:55.747Z,4.35
2024-04-25T01:26:23.595Z,4.22
2024-04-25T01:28:53.076Z,4.19
2024-04-25T01:31:21.016Z,4.13
2024-04-25T01:33:49.110Z,4.03
2024-04-25T01:36:16.722Z,4.20
2024-04-25T01:38:44.230Z,4.33
2024-04-25T01:41:11.716Z,4.39
2024-04-25T01:43:39.129Z,4.29
2024-04-25T01:46:07.934Z,4.22
2024-04-25T01:48:35.854Z,4.05
2024-04-25T01:51:03.551Z,4.36
2024-04-25T01:53:31.142Z,4.49
2024-04-25T01:55:58.564Z,4.44
2024-04-25T01:58:25.934Z,4.60
2024-04-25T02:00:53.309Z,4.57
2024-04-25T02:03:20.801Z,4.58
2024-04-25T02:05:48.354Z,4.31
2024-04-25T02:08:15.726Z,4.21
2024-04-25T02:10:43.182Z,4.15
2024-04-25T02:13:10.601Z,4.23
2024-04-25T02:15:39.044Z,4.28
2024-04-25T02:18:06.746Z,4.25
2024-04-25T02:20:52.814Z,4.31
2024-04-25T02:23:38.829Z,4.14
2024-04-25T02:26:11.126Z,4.04
2024-04-25T02:28:38.588Z,3.93
2024-04-25T02:31:06.002Z,4.31
2024-04-25T02:33:33.471Z,4.25
2024-04-25T02:36:00.889Z,4.36
2024-04-25T02:38:28.370Z,4.54
2024-04-25T02:40:55.781Z,4.51
2024-04-25T02:43:23.141Z,4.56
2024-04-25T02:45:50.443Z,4.58
2024-04-25T02:48:17.960Z,4.47
2024-04-25T02:50:45.334Z,4.62
2024-04-25T02:53:12.706Z,4.75
2024-04-25T02:55:42.076Z,4.63
2024-04-25T02:58:09.451Z,4.41
2024-04-25T03:00:36.849Z,4.09
2024-04-25T03:03:04.640Z,4.07
2024-04-25T03:05:32.084Z,4.31
2024-04-25T03:07:59.428Z,4.53
2024-04-25T03:10:26.822Z,4.55
2024-04-25T03:12:54.156Z,4.48
2024-04-25T03:15:21.559Z,4.59
2024-04-25T03:17:49.179Z,4.38
2024-04-25T03:20:16.752Z,4.42
2024-04-25T03:22:44.172Z,4.24
2024-04-25T03:25:11.607Z,4.29
2024-04-25T03:27:39.970Z,4.45
2024-04-25T03:30:08.079Z,4.52
2024-04-25T03:32:35.625Z,4.42
2024-04-25T03:35:03.122Z,4.45
2024-04-25T03:37:30.908Z,4.58
2024-04-25T03:39:58.313Z,4.55
2024-04-25T03:42:25.697Z,4.59
2024-04-25T03:44:53.598Z,4.60
2024-04-25T03:47:22.080Z,4.63
2024-04-25T03:49:49.830Z,4.59
2024-04-25T03:52:17.223Z,4.46
2024-04-25T03:54:44.604Z,4.46
2024-04-25T03:57:11.900Z,4.49
2024-04-25T03:59:39.452Z,4.43
2024-04-25T04:02:07.281Z,4.39
2024-04-25T04:04:34.759Z,4.15
2024-04-25T04:07:02.154Z,4.43
2024-04-25T04:09:29.539Z,4.40
2024-04-25T04:11:57.052Z,4.43
2024-04-25T04:14:24.567Z,4.44
2024-04-25T04:16:58.279Z,4.46
2024-04-25T04:19:25.767Z,4.35
2024-04-25T04:21:53.140Z,4.16
2024-04-25T04:24:20.672Z,4.22
2024-04-25T04:26:48.738Z,4.02
2024-04-25T04:29:16.334Z,4.12
2024-04-25T04:31:43.790Z,4.00
2024-04-25T04:34:11.213Z,4.11
2024-04-25T04:36:38.679Z,4.07
2024-04-25T04:39:07.666Z,3.90
2024-04-25T04:41:35.073Z,3.92
2024-04-25T04:44:02.939Z,4.22
2024-04-25T04:46:30.395Z,4.41
2024-04-25T04:48:57.955Z,4.36
2024-04-25T04:51:25.456Z,4.45
2024-04-25T04:53:53.250Z,4.59
2024-04-25T04:56:20.711Z,4.73
2024-04-25T04:58:48.432Z,4.62
2024-04-25T05:01:16.210Z,4.60
2024-04-25T05:03:45.007Z,4.74
2024-04-25T05:06:21.037Z,4.84
2024-04-25T05:08:48.863Z,4.82
2024-04-25T05:11:16.342Z,4.74
2024-04-25T05:13:44.304Z,4.65
2024-04-25T05:16:11.918Z,4.83
2024-04-25T05:18:39.820Z,4.78
2024-04-25T05:21:07.988Z,4.94
2024-04-25T05:23:38.295Z,5.12
2024-04-25T05:26:08.912Z,5.09
2024-04-25T05:28:45.061Z,5.04
2024-04-25T05:31:13.044Z,5.24
2024-04-25T05:33:41.139Z,5.40
2024-04-25T05:36:12.615Z,5.15
2024-04-25T05:38:40.599Z,5.32
2024-04-25T05:41:08.567Z,5.42
2024-04-25T05:43:36.364Z,5.36
2024-04-25T05:46:05.129Z,5.37
2024-04-25T05:48:34.209Z,5.50
2024-04-25T05:51:01.959Z,5.23
2024-04-25T05:53:29.418Z,5.49
2024-04-25T05:55:56.865Z,5.18
2024-04-25T05:58:24.368Z,5.37
2024-04-25T06:00:51.839Z,4.94
2024-04-25T06:03:19.577Z,5.36
2024-04-25T06:05:47.146Z,5.29
2024-04-25T06:08:14.593Z,5.22
2024-04-25T06:10:43.698Z,5.37
2024-04-25T06:13:11.494Z,5.25
2024-04-25T06:15:38.935Z,5.01
2024-04-25T06:18:08.865Z,5.23
2024-04-25T06:20:36.512Z,5.33
2024-04-25T06:23:04.957Z,5.46
2024-04-25T06:25:32.513Z,5.48
2024-04-25T06:27:59.915Z,5.66
2024-04-25T06:30:27.301Z,5.87
2024-04-25T06:32:54.888Z,9.04
2024-04-25T06:35:22.374Z,7.43
2024-04-25T06:37:49.876Z,6.93
2024-04-25T06:40:18.123Z,6.51
2024-04-25T06:42:45.595Z,6.38
2024-04-25T06:45:13.257Z,6.39
2024-04-25T06:47:42.612Z,6.47
2024-04-25T06:50:10.181Z,6.50
2024-04-25T06:52:38.055Z,6.49
2024-04-25T06:55:06.028Z,6.65
2024-04-25T06:57:33.491Z,6.55
2024-04-25T07:00:01.024Z,6.72
2024-04-25T07:02:29.033Z,5.99
2024-04-25T07:04:59.441Z,6.29
2024-04-25T07:07:27.505Z,6.03
2024-04-25T07:09:55.098Z,6.06
2024-04-25T07:12:22.513Z,6.17
2024-04-25T07:14:49.933Z,6.38
2024-04-25T07:17:17.587Z,6.53
2024-04-25T07:19:45.661Z,6.08
2024-04-25T07:22:13.308Z,5.92
2024-04-25T07:24:40.833Z,6.11
2024-04-25T07:27:08.231Z,6.13
2024-04-25T07:29:36.324Z,6.04
2024-04-25T07:32:04.815Z,5.92
2024-04-25T07:34:32.595Z,5.88
2024-04-25T07:37:00.087Z,5.90
2024-04-25T07:39:27.628Z,5.93
2024-04-25T07:41:55.130Z,6.00
2024-04-25T07:44:22.567Z,6.20
2024-04-25T07:46:50.628Z,6.35
2024-04-25T07:49:18.669Z,6.47
2024-04-25T07:51:46.568Z,6.44
2024-04-25T07:54:14.509Z,6.34
2024-04-25T07:56:42.132Z,6.13
2024-04-25T07:59:09.761Z,6.34
2024-04-25T08:01:37.358Z,6.41
2024-04-25T08:04:04.880Z,5.93
2024-04-25T08:06:35.694Z,6.00
2024-04-25T08:09:03.833Z,6.01
2024-04-25T08:11:31.463Z,6.03
2024-04-25T08:14:01.269Z,6.02
2024-04-25T08:16:30.298Z,5.80
2024-04-25T08:18:57.692Z,5.79
2024-04-25T08:21:25.219Z,6.26
2024-04-25T08:23:52.699Z,6.24
2024-04-25T08:26:24.094Z,6.06
2024-04-25T08:28:51.530Z,6.17
2024-04-25T08:31:19.301Z,6.10
2024-04-25T08:33:48.398Z,6.36
2024-04-25T08:36:16.539Z,6.46
2024-04-25T08:38:46.629Z,6.83
2024-04-25T08:41:16.220Z,6.96
2024-04-25T08:43:44.473Z,6.99
2024-04-25T08:46:14.230Z,7.17
2024-04-25T08:48:42.363Z,7.33
2024-04-25T08:51:14.975Z,6.92
2024-04-25T08:53:42.910Z,7.08
2024-04-25T08:56:11.870Z,7.26
2024-04-25T08:58:39.763Z,7.16
2024-04-25T09:01:08.938Z,7.07
2024-04-25T09:03:37.956Z,8.12
2024-04-25T09:06:07.564Z,8.66
2024-04-25T09:08:35.254Z,8.73
2024-04-25T09:11:02.880Z,8.46
2024-04-25T09:13:30.373Z,8.62
2024-04-25T09:16:01.968Z,8.63
2024-04-25T09:18:29.762Z,7.77
2024-04-25T09:20:57.263Z,8.15
2024-04-25T09:23:24.930Z,8.20
2024-04-25T09:25:52.566Z,8.06
2024-04-25T09:28:20.330Z,7.27
2024-04-25T09:30:47.832Z,6.52
2024-04-25T09:33:19.758Z,6.31
2024-04-25T09:35:49.108Z,6.29
2024-04-25T09:38:16.845Z,6.46
2024-04-25T09:40:51.003Z,5.99
2024-04-25T09:43:20.381Z,6.27
2024-04-25T09:45:47.808Z,6.49
2024-04-25T09:48:19.179Z,6.65
2024-04-25T09:50:49.530Z,7.23
2024-04-25T09:53:58.899Z,7.76
2024-04-25T09:56:30.381Z,7.99
2024-04-25T09:59:27.483Z,8.28
2024-04-25T10:01:56.177Z,8.06
2024-04-25T10:04:31.182Z,8.05
2024-04-25T10:07:00.645Z,8.40
2024-04-25T10:09:29.213Z,8.60
2024-04-25T10:12:00.093Z,8.90
2024-04-25T10:14:31.113Z,8.97
2024-04-25T10:17:02.365Z,9.06
2024-04-25T10:19:41.367Z,9.00
2024-04-25T10:22:08.946Z,8.84
2024-04-25T10:24:44.028Z,8.29
2024-04-25T10:27:14.889Z,7.93
2024-04-25T10:30:02.533Z,8.10
2024-04-25T10:32:33.801Z,7.85
2024-04-25T10:35:02.372Z,7.87
2024-04-25T10:37:32.184Z,7.71
2024-04-25T10:40:05.143Z,7.76
2024-04-25T10:42:32.595Z,7.81
2024-04-25T10:45:00.429Z,7.82
2024-04-25T10:47:28.096Z,8.08
2024-04-25T10:49:55.963Z,8.31
2024-04-25T10:52:24.035Z,8.01
2024-04-25T10:54:51.938Z,7.99
2024-04-25T10:57:19.526Z,8.43
2024-04-25T10:59:47.156Z,8.70
2024-04-25T11:02:15.564Z,8.63
2024-04-25T11:04:44.065Z,8.82
2024-04-25T11:07:15.540Z,8.95
2024-04-25T11:09:43.061Z,9.14
2024-04-25T11:12:13.518Z,9.05
2024-04-25T11:14:41.553Z,9.22
2024-04-25T11:17:09.003Z,9.33
2024-04-25T11:19:43.718Z,9.19
2024-04-25T11:24:49.140Z,9.35
2024-04-25T11:27:17.568Z,9.23
2024-04-25T11:29:45.246Z,11.21
2024-04-25T11:32:16.634Z,13.73
2024-04-25T11:34:44.025Z,14.53
2024-04-25T11:37:11.509Z,15.40
2024-04-25T11:39:40.492Z,13.19
2024-04-25T11:42:10.457Z,12.13
2024-04-25T11:44:38.207Z,11.02
2024-04-25T11:47:14.598Z,10.67
2024-04-25T11:50:02.792Z,9.92
2024-04-25T11:52:48.339Z,9.25
2024-04-25T11:55:29.881Z,9.00
2024-04-25T11:57:58.529Z,8.90
2024-04-25T12:00:26.950Z,8.43
2024-04-25T12:02:54.914Z,7.84
2024-04-25T12:05:25.666Z,8.06
2024-04-25T12:07:55.773Z,8.47
2024-04-25T12:10:33.452Z,8.15
2024-04-25T12:13:12.095Z,8.35
2024-04-25T12:15:40.070Z,8.36
2024-04-25T12:18:08.158Z,8.90
2024-04-25T12:20:36.962Z,9.56
2024-04-25T12:23:05.183Z,9.43
2024-04-25T12:25:32.952Z,9.50
2024-04-25T12:28:00.552Z,9.21
2024-04-25T12:30:28.298Z,9.17
2024-04-25T12:32:55.933Z,9.34
2024-04-25T12:35:23.978Z,9.19
2024-04-25T12:37:52.518Z,9.39
2024-04-25T12:40:20.566Z,9.02
2024-04-25T12:42:48.194Z,9.05
2024-04-25T12:45:21.104Z,8.97
2024-04-25T12:47:48.873Z,9.26
2024-04-25T12:50:19.159Z,9.40
2024-04-25T12:52:48.959Z,9.10
2024-04-25T12:55:19.714Z,9.26
2024-04-25T12:57:47.384Z,9.18
2024-04-25T13:00:15.200Z,9.16
2024-04-25T13:02:42.743Z,9.26
2024-04-25T13:05:10.348Z,8.89
2024-04-25T13:07:37.972Z,9.10
2024-04-25T13:10:05.502Z,8.91
2024-04-25T13:12:33.126Z,8.88
2024-04-25T13:15:04.776Z,8.88
2024-04-25T13:17:33.558Z,8.74
2024-04-25T13:20:02.698Z,8.66
2024-04-25T13:22:30.471Z,8.66
2024-04-25T13:24:58.077Z,9.00
2024-04-25T13:27:25.717Z,9.22
2024-04-25T13:29:53.281Z,9.93
2024-04-25T13:32:22.493Z,10.30
2024-04-25T13:34:53.068Z,10.11
2024-04-25T13:37:20.619Z,9.76
2024-04-25T13:39:48.200Z,9.62
2024-04-25T13:42:15.792Z,9.72
2024-04-25T13:44:43.578Z,10.11
2024-04-25T13:47:11.204Z,10.27
2024-04-25T13:49:38.795Z,10.21
2024-04-25T13:52:06.478Z,9.93
2024-04-25T13:54:35.239Z,10.49
2024-04-25T13:57:04.122Z,10.58
2024-04-25T13:59:32.150Z,10.63
2024-04-25T14:02:17.300Z,10.71
2024-04-25T14:04:45.987Z,10.52
2024-04-25T14:07:13.363Z,10.37
2024-04-25T14:09:42.350Z,10.39
2024-04-25T14:12:09.991Z,10.72
2024-04-25T14:14:37.607Z,10.92
2024-04-25T14:17:05.067Z,10.80
2024-04-25T14:19:58.976Z,10.65
2024-04-25T14:22:26.895Z,10.90
2024-04-25T14:25:01.392Z,11.20
2024-04-25T14:27:47.670Z,11.05
2024-04-25T14:30:15.203Z,11.15
2024-04-25T14:32:42.754Z,10.38
2024-04-25T14:35:10.224Z,10.22
2024-04-25T14:37:37.596Z,10.26
2024-04-25T14:40:05.380Z,10.21
2024-04-25T14:42:35.207Z,10.78
2024-04-25T14:45:03.934Z,11.09
2024-04-25T14:47:31.440Z,10.70
2024-04-25T14:49:59.141Z,11.00
2024-04-25T14:52:26.797Z,11.31
2024-04-25T14:54:54.215Z,10.83
2024-04-25T14:57:21.696Z,10.98
2024-04-25T14:59:50.082Z,10.98
2024-04-25T15:02:17.550Z,10.80
2024-04-25T15:04:44.946Z,10.28
2024-04-25T15:07:14.259Z,10.30
2024-04-25T15:09:41.567Z,10.16
2024-04-25T15:12:10.737Z,10.29
2024-04-25T15:14:38.350Z,10.66
2024-04-25T15:17:07.509Z,10.10
2024-04-25T15:19:42.728Z,10.09
2024-04-25T15:22:11.094Z,10.09
2024-04-25T15:24:39.266Z,10.21
2024-04-25T15:27:06.774Z,9.88
2024-04-25T15:29:34.553Z,9.57
2024-04-25T15:32:02.225Z,9.39
2024-04-25T15:34:29.738Z,9.26
2024-04-25T15:36:57.165Z,9.25
2024-04-25T15:39:24.540Z,9.74
2024-04-25T15:41:51.969Z,9.89
2024-04-25T15:44:19.473Z,9.85
2024-04-25T15:46:46.900Z,9.77
2024-04-25T15:49:14.961Z,9.37
2024-04-25T15:51:42.755Z,9.23
2024-04-25T15:54:10.231Z,9.39
2024-04-25T15:56:37.659Z,9.49
2024-04-25T15:59:05.037Z,9.49
2024-04-25T16:01:32.515Z,9.61
2024-04-25T16:04:00.242Z,9.39
2024-04-25T16:06:27.753Z,9.06
2024-04-25T16:08:55.412Z,9.02
2024-04-25T16:11:23.004Z,9.27
2024-04-25T16:13:50.476Z,9.22
2024-04-25T16:16:21.578Z,9.40
2024-04-25T16:18:50.970Z,9.60
2024-04-25T16:21:19.098Z,9.33
2024-04-25T16:23:46.647Z,9.16
2024-04-25T16:26:14.458Z,9.27
2024-04-25T16:28:42.165Z,9.35
2024-04-25T16:31:12.628Z,9.32
2024-04-25T16:33:40.662Z,9.20
2024-04-25T16:36:15.951Z,9.04
2024-04-25T16:38:43.719Z,9.02
2024-04-25T16:41:11.181Z,8.94
2024-04-25T16:43:38.751Z,8.87
2024-04-25T16:46:06.702Z,9.09
2024-04-25T16:48:34.355Z,9.20
2024-04-25T16:51:01.976Z,9.28
2024-04-25T16:53:29.502Z,9.22
2024-04-25T16:55:56.909Z,9.21
2024-04-25T16:58:24.322Z,9.38
2024-04-25T17:00:52.609Z,9.27
2024-04-25T17:03:23.027Z,9.43
2024-04-25T17:05:50.725Z,9.54
2024-04-25T17:08:18.541Z,9.51
2024-04-25T17:10:45.991Z,9.51
2024-04-25T17:13:13.559Z,9.42
2024-04-25T17:15:41.009Z,9.08
2024-04-25T17:18:08.561Z,9.16
2024-04-25T17:20:36.081Z,9.11
2024-04-25T17:23:03.716Z,9.04
2024-04-25T17:25:31.242Z,9.17
2024-04-25T17:27:58.882Z,9.30
2024-04-25T17:30:26.486Z,9.38
2024-04-25T17:32:54.082Z,9.36
2024-04-25T17:35:21.698Z,9.14
2024-04-25T17:37:49.308Z,9.20
2024-04-25T17:40:16.820Z,9.21
2024-04-25T17:42:44.314Z,9.06
2024-04-25T17:45:11.883Z,9.08
2024-04-25T17:47:42.046Z,8.97
2024-04-25T17:50:11.447Z,8.83
2024-04-25T17:52:39.493Z,8.70
2024-04-25T17:55:07.891Z,8.70
2024-04-25T17:57:35.406Z,8.60
2024-04-25T18:00:03.373Z,8.74
2024-04-25T18:02:38.143Z,8.71
2024-04-25T18:05:09.299Z,8.65
2024-04-25T18:07:37.193Z,8.78
2024-04-25T18:10:06.111Z,8.79
2024-04-25T18:12:33.579Z,8.71
2024-04-25T18:15:03.286Z,8.74
2024-04-25T18:17:31.318Z,8.69
2024-04-25T18:19:58.902Z,8.59
2024-04-25T18:22:26.365Z,8.63
2024-04-25T18:24:53.850Z,8.56
2024-04-25T18:27:21.713Z,8.73
2024-04-25T18:29:49.434Z,8.79
2024-04-25T18:32:17.147Z,8.80
2024-04-25T18:34:44.940Z,8.82
2024-04-25T18:37:13.385Z,8.59
2024-04-25T18:39:40.936Z,8.66
2024-04-25T18:42:09.786Z,8.76
2024-04-25T18:44:37.728Z,8.65
2024-04-25T18:47:05.690Z,8.66
2024-04-25T18:49:33.403Z,8.73
2024-04-25T18:52:00.990Z,8.63
2024-04-25T18:54:29.050Z,8.61
2024-04-25T18:56:56.423Z,8.63
2024-04-25T18:59:24.116Z,8.62
2024-04-25T19:01:51.544Z,8.59
2024-04-25T19:04:21.876Z,8.57
2024-04-25T19:06:50.854Z,8.59
2024-04-25T19:09:19.641Z,8.66
2024-04-25T19:11:50.164Z,8.73
2024-04-25T19:14:17.975Z,8.71
2024-04-25T19:16:46.516Z,8.75
2024-04-25T19:19:15.129Z,8.65
2024-04-25T19:21:47.446Z,8.56
2024-04-25T19:24:18.812Z,8.69
2024-04-25T19:26:47.855Z,8.66
2024-04-25T19:29:19.599Z,8.71
2024-04-25T19:31:48.594Z,8.71
2024-04-25T19:34:22.324Z,8.77
2024-04-25T19:36:55.451Z,8.78
2024-04-25T19:39:23.884Z,8.80
2024-04-25T19:41:51.659Z,8.71
2024-04-25T19:44:19.372Z,9.33
2024-04-25T19:46:46.998Z,9.06
2024-04-25T19:49:15.583Z,8.91
2024-04-25T19:51:43.382Z,8.78
2024-04-25T19:54:10.900Z,8.74
2024-04-25T19:56:40.454Z,8.76
2024-04-25T19:59:08.042Z,8.78
2024-04-25T20:01:35.575Z,8.81
2024-04-25T20:04:02.938Z,9.35
2024-04-25T20:06:30.453Z,9.02
2024-04-25T20:09:00.042Z,8.90
2024-04-25T20:11:28.223Z,8.82
2024-04-25T20:13:55.687Z,8.74
2024-04-25T20:16:23.147Z,8.66
2024-04-25T20:19:09.277Z,8.60
2024-04-25T20:21:42.999Z,8.60
2024-04-25T20:24:10.913Z,8.55
2024-04-25T20:26:40.871Z,8.59
2024-04-25T20:29:08.452Z,8.51
2024-04-25T20:31:35.943Z,8.46
2024-04-25T20:34:03.440Z,8.46
2024-04-25T20:36:31.445Z,8.40
2024-04-25T20:38:58.881Z,8.28
2024-04-25T20:41:27.678Z,8.29
2024-04-25T20:43:55.408Z,8.34
2024-04-25T20:46:23.663Z,8.33
2024-04-25T20:48:53.062Z,8.35
2024-04-25T20:51:20.764Z,8.30
2024-04-25T20:53:48.225Z,8.29
2024-04-25T20:56:15.816Z,8.24
2024-04-25T20:58:45.883Z,8.25
2024-04-25T21:01:13.824Z,8.18
2024-04-25T21:03:41.435Z,8.23
2024-04-25T21:06:09.125Z,8.13
2024-04-25T21:08:36.588Z,8.07
2024-04-25T21:11:08.394Z,8.02
2024-04-25T21:13:35.935Z,7.99
2024-04-25T21:16:05.951Z,7.92
2024-04-25T21:18:34.235Z,7.94
2024-04-25T21:21:03.645Z,7.89
2024-04-25T21:23:31.663Z,7.90
2024-04-25T21:26:01.685Z,7.82
2024-04-25T21:28:30.052Z,7.80
2024-04-25T21:30:59.149Z,7.77
2024-04-25T21:33:26.794Z,7.73
2024-04-25T21:35:54.574Z,7.69
2024-04-25T21:38:23.027Z,7.66
2024-04-25T21:40:50.578Z,7.58
2024-04-25T21:43:18.066Z,7.48
2024-04-25T21:45:45.592Z,7.52
2024-04-25T21:48:13.416Z,7.48
2024-04-25T21:50:41.188Z,7.42
2024-04-25T21:53:08.849Z,7.42
2024-04-25T21:55:36.299Z,7.36
2024-04-25T21:58:04.349Z,7.31
2024-04-25T22:00:33.228Z,7.29
2024-04-25T22:03:01.252Z,7.23
2024-04-25T22:05:28.837Z,7.09
2024-04-25T22:07:56.313Z,7.18
2024-04-25T22:10:23.804Z,7.21
2024-04-25T22:12:51.232Z,7.15
2024-04-25T22:15:18.620Z,7.11
2024-04-25T22:17:47.215Z,7.11
2024-04-25T22:20:14.816Z,7.11
2024-04-25T22:22:42.463Z,7.01
2024-04-25T22:25:10.127Z,6.95
2024-04-25T22:27:38.720Z,7.01
2024-04-25T22:30:07.060Z,6.93
2024-04-25T22:32:34.636Z,6.96
2024-04-25T22:35:02.505Z,6.86
2024-04-25T22:37:29.970Z,6.80
2024-04-25T22:39:57.435Z,6.69
2024-04-25T22:42:24.867Z,6.69
2024-04-25T22:44:55.490Z,6.65
2024-04-25T22:47:25.828Z,6.58
2024-04-25T22:49:53.230Z,6.56
2024-04-25T22:52:21.924Z,6.48
2024-04-25T22:54:49.855Z,6.52
2024-04-25T22:57:17.283Z,6.47
2024-04-25T22:59:44.806Z,6.37
2024-04-25T23:02:12.262Z,6.42
2024-04-25T23:04:39.790Z,6.38
2024-04-25T23:07:07.277Z,6.36
2024-04-25T23:09:34.823Z,6.35
2024-04-25T23:12:02.528Z,6.15
2024-04-25T23:14:30.469Z,6.10
2024-04-25T23:16:58.000Z,6.18
2024-04-25T23:19:25.465Z,6.11
2024-04-25T23:21:52.918Z,6.06
2024-04-25T23:24:20.384Z,6.11
2024-04-25T23:26:47.846Z,6.09
2024-04-25T23:29:15.294Z,6.04
2024-04-25T23:31:45.788Z,6.04
2024-04-25T23:34:13.513Z,5.96
2024-04-25T23:36:41.083Z,5.93
2024-04-25T23:39:08.602Z,5.90
2024-04-25T23:41:36.104Z,5.83
2024-04-25T23:44:03.489Z,5.83
2024-04-25T23:46:31.336Z,5.81
2024-04-25T23:48:58.783Z,5.81
2024-04-25T23:51:26.732Z,5.69
2024-04-25T23:53:54.387Z,5.73
2024-04-25T23:56:21.880Z,5.56
2024-04-25T23:58:49.359Z,5.54
